sensor_id;sensor_type;location;lat;lon;timestamp;P1;durP1;ratioP1;P2;durP2;ratioP2
43457;SDS011;29046;54.184;18.680;2023-09-08T00:01:44;11.98;;;5.40;;
43457;SDS011;29046;54.184;18.680;2023-09-08T00:04:12;9.40;;;5.28;;
43457;SDS011;29046;54.184;18.680;2023-09-08T00:06:41;9.85;;;5.55;;
43457;SDS011;29046;54.184;18.680;2023-09-08T00:09:09;12.85;;;5.68;;
43457;SDS011;29046;54.184;18.680;2023-09-08T00:11:37;12.68;;;5.65;;
43457;SDS011;29046;54.184;18.680;2023-09-08T00:14:04;13.40;;;5.85;;
43457;SDS011;29046;54.184;18.680;2023-09-08T00:16:32;7.47;;;5.43;;
43457;SDS011;29046;54.184;18.680;2023-09-08T00:19:00;18.95;;;6.95;;
43457;SDS011;29046;54.184;18.680;2023-09-08T00:21:28;10.50;;;5.22;;
43457;SDS011;29046;54.184;18.680;2023-09-08T00:23:55;14.32;;;5.57;;
43457;SDS011;29046;54.184;18.680;2023-09-08T00:26:23;12.70;;;5.07;;
43457;SDS011;29046;54.184;18.680;2023-09-08T00:28:51;16.63;;;7.45;;
43457;SDS011;29046;54.184;18.680;2023-09-08T00:31:18;13.70;;;8.18;;
43457;SDS011;29046;54.184;18.680;2023-09-08T00:33:46;18.10;;;7.40;;
43457;SDS011;29046;54.184;18.680;2023-09-08T00:36:14;12.85;;;7.63;;
43457;SDS011;29046;54.184;18.680;2023-09-08T00:38:42;15.27;;;6.10;;
43457;SDS011;29046;54.184;18.680;2023-09-08T00:41:10;14.05;;;7.63;;
43457;SDS011;29046;54.184;18.680;2023-09-08T00:43:38;12.45;;;7.00;;
43457;SDS011;29046;54.184;18.680;2023-09-08T00:46:06;11.27;;;5.97;;
43457;SDS011;29046;54.184;18.680;2023-09-08T00:48:34;11.70;;;5.75;;
43457;SDS011;29046;54.184;18.680;2023-09-08T00:51:03;13.35;;;6.75;;
43457;SDS011;29046;54.184;18.680;2023-09-08T00:53:34;12.02;;;6.32;;
43457;SDS011;29046;54.184;18.680;2023-09-08T00:56:02;11.65;;;5.75;;
43457;SDS011;29046;54.184;18.680;2023-09-08T00:58:30;12.95;;;5.45;;
43457;SDS011;29046;54.184;18.680;2023-09-08T01:00:58;11.93;;;5.88;;
43457;SDS011;29046;54.184;18.680;2023-09-08T01:03:26;6.70;;;4.57;;
43457;SDS011;29046;54.184;18.680;2023-09-08T01:05:54;11.45;;;5.50;;
43457;SDS011;29046;54.184;18.680;2023-09-08T01:08:22;10.43;;;5.70;;
43457;SDS011;29046;54.184;18.680;2023-09-08T01:10:52;15.23;;;5.30;;
43457;SDS011;29046;54.184;18.680;2023-09-08T01:13:20;9.20;;;5.55;;
43457;SDS011;29046;54.184;18.680;2023-09-08T01:15:49;11.50;;;4.85;;
43457;SDS011;29046;54.184;18.680;2023-09-08T01:18:17;10.48;;;5.10;;
43457;SDS011;29046;54.184;18.680;2023-09-08T01:20:53;11.60;;;6.13;;
43457;SDS011;29046;54.184;18.680;2023-09-08T01:23:25;13.15;;;5.70;;
43457;SDS011;29046;54.184;18.680;2023-09-08T01:26:15;13.60;;;5.07;;
43457;SDS011;29046;54.184;18.680;2023-09-08T01:28:45;9.93;;;5.72;;
43457;SDS011;29046;54.184;18.680;2023-09-08T01:31:17;14.73;;;6.75;;
43457;SDS011;29046;54.184;18.680;2023-09-08T01:33:45;11.05;;;6.15;;
43457;SDS011;29046;54.184;18.680;2023-09-08T01:36:13;9.93;;;5.07;;
43457;SDS011;29046;54.184;18.680;2023-09-08T01:38:40;10.63;;;5.90;;
43457;SDS011;29046;54.184;18.680;2023-09-08T01:41:08;8.02;;;5.15;;
43457;SDS011;29046;54.184;18.680;2023-09-08T01:43:36;12.23;;;5.18;;
43457;SDS011;29046;54.184;18.680;2023-09-08T01:46:04;9.27;;;5.30;;
43457;SDS011;29046;54.184;18.680;2023-09-08T01:48:31;10.15;;;4.90;;
43457;SDS011;29046;54.184;18.680;2023-09-08T01:51:00;9.02;;;5.53;;
43457;SDS011;29046;54.184;18.680;2023-09-08T01:53:27;8.00;;;4.07;;
43457;SDS011;29046;54.184;18.680;2023-09-08T01:55:55;8.15;;;5.07;;
43457;SDS011;29046;54.184;18.680;2023-09-08T01:58:22;6.85;;;5.00;;
43457;SDS011;29046;54.184;18.680;2023-09-08T02:00:50;10.02;;;5.22;;
43457;SDS011;29046;54.184;18.680;2023-09-08T02:03:18;8.70;;;5.25;;
43457;SDS011;29046;54.184;18.680;2023-09-08T02:05:46;7.47;;;4.63;;
43457;SDS011;29046;54.184;18.680;2023-09-08T02:08:14;6.75;;;4.60;;
43457;SDS011;29046;54.184;18.680;2023-09-08T02:10:42;12.25;;;5.05;;
43457;SDS011;29046;54.184;18.680;2023-09-08T02:13:09;8.35;;;5.25;;
43457;SDS011;29046;54.184;18.680;2023-09-08T02:15:37;10.60;;;4.43;;
43457;SDS011;29046;54.184;18.680;2023-09-08T02:18:06;7.75;;;4.53;;
43457;SDS011;29046;54.184;18.680;2023-09-08T02:20:34;9.23;;;4.80;;
43457;SDS011;29046;54.184;18.680;2023-09-08T02:23:05;11.23;;;4.72;;
43457;SDS011;29046;54.184;18.680;2023-09-08T02:25:33;11.40;;;5.97;;
43457;SDS011;29046;54.184;18.680;2023-09-08T02:28:01;8.60;;;5.15;;
43457;SDS011;29046;54.184;18.680;2023-09-08T02:30:29;7.05;;;4.95;;
43457;SDS011;29046;54.184;18.680;2023-09-08T02:32:57;8.93;;;5.20;;
43457;SDS011;29046;54.184;18.680;2023-09-08T02:35:24;12.40;;;4.95;;
43457;SDS011;29046;54.184;18.680;2023-09-08T02:37:52;12.10;;;5.57;;
43457;SDS011;29046;54.184;18.680;2023-09-08T02:40:20;9.65;;;5.07;;
43457;SDS011;29046;54.184;18.680;2023-09-08T02:42:47;8.98;;;4.50;;
43457;SDS011;29046;54.184;18.680;2023-09-08T02:45:15;14.20;;;4.55;;
43457;SDS011;29046;54.184;18.680;2023-09-08T02:47:43;12.77;;;4.90;;
43457;SDS011;29046;54.184;18.680;2023-09-08T02:50:10;8.02;;;4.50;;
43457;SDS011;29046;54.184;18.680;2023-09-08T02:52:38;9.82;;;4.57;;
43457;SDS011;29046;54.184;18.680;2023-09-08T02:55:06;14.48;;;4.75;;
43457;SDS011;29046;54.184;18.680;2023-09-08T02:57:33;5.40;;;4.13;;
43457;SDS011;29046;54.184;18.680;2023-09-08T03:00:01;5.75;;;4.28;;
43457;SDS011;29046;54.184;18.680;2023-09-08T03:02:28;7.80;;;4.78;;
43457;SDS011;29046;54.184;18.680;2023-09-08T03:04:57;5.80;;;4.22;;
43457;SDS011;29046;54.184;18.680;2023-09-08T03:07:25;7.88;;;4.75;;
43457;SDS011;29046;54.184;18.680;2023-09-08T03:09:53;10.65;;;5.05;;
43457;SDS011;29046;54.184;18.680;2023-09-08T03:12:21;7.53;;;4.75;;
43457;SDS011;29046;54.184;18.680;2023-09-08T03:14:48;10.25;;;4.25;;
43457;SDS011;29046;54.184;18.680;2023-09-08T03:17:16;9.93;;;4.60;;
43457;SDS011;29046;54.184;18.680;2023-09-08T03:19:45;11.77;;;5.35;;
43457;SDS011;29046;54.184;18.680;2023-09-08T03:22:12;7.80;;;5.28;;
43457;SDS011;29046;54.184;18.680;2023-09-08T03:24:40;8.18;;;4.57;;
43457;SDS011;29046;54.184;18.680;2023-09-08T03:27:07;9.38;;;5.00;;
43457;SDS011;29046;54.184;18.680;2023-09-08T03:29:35;9.20;;;5.22;;
43457;SDS011;29046;54.184;18.680;2023-09-08T03:32:03;10.55;;;5.35;;
43457;SDS011;29046;54.184;18.680;2023-09-08T03:34:31;12.70;;;6.10;;
43457;SDS011;29046;54.184;18.680;2023-09-08T03:36:59;8.15;;;5.50;;
43457;SDS011;29046;54.184;18.680;2023-09-08T03:39:26;10.48;;;5.13;;
43457;SDS011;29046;54.184;18.680;2023-09-08T03:41:54;6.53;;;4.28;;
43457;SDS011;29046;54.184;18.680;2023-09-08T03:44:22;10.70;;;5.28;;
43457;SDS011;29046;54.184;18.680;2023-09-08T03:46:49;10.07;;;5.40;;
43457;SDS011;29046;54.184;18.680;2023-09-08T03:49:17;9.20;;;4.53;;
43457;SDS011;29046;54.184;18.680;2023-09-08T03:51:45;8.13;;;4.95;;
43457;SDS011;29046;54.184;18.680;2023-09-08T03:54:12;9.02;;;5.32;;
43457;SDS011;29046;54.184;18.680;2023-09-08T03:56:40;10.02;;;5.82;;
43457;SDS011;29046;54.184;18.680;2023-09-08T03:59:08;7.82;;;4.90;;
43457;SDS011;29046;54.184;18.680;2023-09-08T04:01:35;9.18;;;5.03;;
43457;SDS011;29046;54.184;18.680;2023-09-08T04:04:03;7.13;;;5.00;;
43457;SDS011;29046;54.184;18.680;2023-09-08T04:06:31;8.48;;;5.07;;
43457;SDS011;29046;54.184;18.680;2023-09-08T04:08:58;8.18;;;4.50;;
43457;SDS011;29046;54.184;18.680;2023-09-08T04:11:26;8.75;;;5.32;;
43457;SDS011;29046;54.184;18.680;2023-09-08T04:13:54;7.80;;;5.43;;
43457;SDS011;29046;54.184;18.680;2023-09-08T04:16:21;9.00;;;5.40;;
43457;SDS011;29046;54.184;18.680;2023-09-08T04:18:49;7.97;;;5.05;;
43457;SDS011;29046;54.184;18.680;2023-09-08T04:21:20;9.25;;;4.75;;
43457;SDS011;29046;54.184;18.680;2023-09-08T04:23:48;7.40;;;4.95;;
43457;SDS011;29046;54.184;18.680;2023-09-08T04:26:15;9.75;;;5.03;;
43457;SDS011;29046;54.184;18.680;2023-09-08T04:28:43;7.97;;;5.10;;
43457;SDS011;29046;54.184;18.680;2023-09-08T04:31:10;16.13;;;6.28;;
43457;SDS011;29046;54.184;18.680;2023-09-08T04:33:38;8.68;;;5.80;;
43457;SDS011;29046;54.184;18.680;2023-09-08T04:36:06;10.27;;;5.70;;
43457;SDS011;29046;54.184;18.680;2023-09-08T04:38:34;13.35;;;5.72;;
43457;SDS011;29046;54.184;18.680;2023-09-08T04:41:01;7.78;;;5.07;;
43457;SDS011;29046;54.184;18.680;2023-09-08T04:43:29;8.60;;;6.68;;
43457;SDS011;29046;54.184;18.680;2023-09-08T04:45:57;17.30;;;6.20;;
43457;SDS011;29046;54.184;18.680;2023-09-08T04:48:24;12.15;;;6.80;;
43457;SDS011;29046;54.184;18.680;2023-09-08T04:50:56;18.08;;;6.85;;
43457;SDS011;29046;54.184;18.680;2023-09-08T04:53:24;12.63;;;6.10;;
43457;SDS011;29046;54.184;18.680;2023-09-08T04:55:52;9.48;;;6.25;;
43457;SDS011;29046;54.184;18.680;2023-09-08T04:58:19;10.57;;;6.95;;
43457;SDS011;29046;54.184;18.680;2023-09-08T05:00:47;11.18;;;6.03;;
43457;SDS011;29046;54.184;18.680;2023-09-08T05:03:15;9.82;;;6.13;;
43457;SDS011;29046;54.184;18.680;2023-09-08T05:05:43;19.33;;;7.60;;
43457;SDS011;29046;54.184;18.680;2023-09-08T05:08:12;10.52;;;6.60;;
43457;SDS011;29046;54.184;18.680;2023-09-08T05:10:39;11.40;;;6.47;;
43457;SDS011;29046;54.184;18.680;2023-09-08T05:13:07;8.60;;;5.78;;
43457;SDS011;29046;54.184;18.680;2023-09-08T05:15:54;9.80;;;6.03;;
43457;SDS011;29046;54.184;18.680;2023-09-08T05:18:26;9.80;;;5.55;;
43457;SDS011;29046;54.184;18.680;2023-09-08T05:20:54;12.00;;;6.28;;
43457;SDS011;29046;54.184;18.680;2023-09-08T05:23:22;12.55;;;6.32;;
43457;SDS011;29046;54.184;18.680;2023-09-08T05:25:49;10.18;;;6.43;;
43457;SDS011;29046;54.184;18.680;2023-09-08T05:28:17;17.48;;;6.07;;
43457;SDS011;29046;54.184;18.680;2023-09-08T05:30:44;9.57;;;5.90;;
43457;SDS011;29046;54.184;18.680;2023-09-08T05:33:12;10.60;;;6.05;;
43457;SDS011;29046;54.184;18.680;2023-09-08T05:35:40;11.75;;;4.93;;
43457;SDS011;29046;54.184;18.680;2023-09-08T05:38:08;11.73;;;6.10;;
43457;SDS011;29046;54.184;18.680;2023-09-08T05:40:35;8.93;;;6.13;;
43457;SDS011;29046;54.184;18.680;2023-09-08T05:43:03;11.75;;;6.25;;
43457;SDS011;29046;54.184;18.680;2023-09-08T05:45:31;11.27;;;6.25;;
43457;SDS011;29046;54.184;18.680;2023-09-08T05:47:59;9.07;;;5.93;;
43457;SDS011;29046;54.184;18.680;2023-09-08T05:50:27;9.40;;;5.57;;
43457;SDS011;29046;54.184;18.680;2023-09-08T05:52:54;9.23;;;5.88;;
43457;SDS011;29046;54.184;18.680;2023-09-08T05:55:22;11.52;;;5.82;;
43457;SDS011;29046;54.184;18.680;2023-09-08T05:57:50;12.05;;;6.60;;
43457;SDS011;29046;54.184;18.680;2023-09-08T06:00:17;14.52;;;6.90;;
43457;SDS011;29046;54.184;18.680;2023-09-08T06:02:45;16.27;;;7.60;;
43457;SDS011;29046;54.184;18.680;2023-09-08T06:05:13;12.32;;;6.95;;
43457;SDS011;29046;54.184;18.680;2023-09-08T06:07:41;17.33;;;7.25;;
43457;SDS011;29046;54.184;18.680;2023-09-08T06:10:26;22.35;;;8.07;;
43457;SDS011;29046;54.184;18.680;2023-09-08T06:12:54;16.20;;;8.68;;
43457;SDS011;29046;54.184;18.680;2023-09-08T06:15:22;29.52;;;8.77;;
43457;SDS011;29046;54.184;18.680;2023-09-08T06:17:49;18.80;;;8.50;;
43457;SDS011;29046;54.184;18.680;2023-09-08T06:20:17;22.30;;;8.15;;
43457;SDS011;29046;54.184;18.680;2023-09-08T06:22:45;20.85;;;8.50;;
43457;SDS011;29046;54.184;18.680;2023-09-08T06:25:12;16.50;;;8.43;;
43457;SDS011;29046;54.184;18.680;2023-09-08T06:27:40;40.35;;;8.63;;
43457;SDS011;29046;54.184;18.680;2023-09-08T06:30:08;35.35;;;8.27;;
43457;SDS011;29046;54.184;18.680;2023-09-08T06:32:35;28.20;;;8.60;;
43457;SDS011;29046;54.184;18.680;2023-09-08T06:35:03;17.83;;;8.55;;
43457;SDS011;29046;54.184;18.680;2023-09-08T06:37:34;27.27;;;8.63;;
43457;SDS011;29046;54.184;18.680;2023-09-08T06:40:03;22.80;;;7.18;;
43457;SDS011;29046;54.184;18.680;2023-09-08T06:42:31;24.27;;;7.75;;
43457;SDS011;29046;54.184;18.680;2023-09-08T06:44:58;23.23;;;7.53;;
43457;SDS011;29046;54.184;18.680;2023-09-08T06:47:26;28.50;;;7.68;;
43457;SDS011;29046;54.184;18.680;2023-09-08T06:49:54;26.02;;;7.38;;
43457;SDS011;29046;54.184;18.680;2023-09-08T06:52:22;11.32;;;6.57;;
43457;SDS011;29046;54.184;18.680;2023-09-08T06:54:50;18.08;;;7.18;;
43457;SDS011;29046;54.184;18.680;2023-09-08T06:57:18;16.25;;;6.47;;
43457;SDS011;29046;54.184;18.680;2023-09-08T06:59:46;18.98;;;6.75;;
43457;SDS011;29046;54.184;18.680;2023-09-08T07:02:14;18.27;;;6.32;;
43457;SDS011;29046;54.184;18.680;2023-09-08T07:04:42;23.70;;;7.05;;
43457;SDS011;29046;54.184;18.680;2023-09-08T07:07:10;19.30;;;6.78;;
43457;SDS011;29046;54.184;18.680;2023-09-08T07:09:38;19.10;;;6.13;;
43457;SDS011;29046;54.184;18.680;2023-09-08T07:12:05;30.10;;;6.57;;
43457;SDS011;29046;54.184;18.680;2023-09-08T07:14:33;15.93;;;6.30;;
43457;SDS011;29046;54.184;18.680;2023-09-08T07:17:01;16.00;;;5.85;;
43457;SDS011;29046;54.184;18.680;2023-09-08T07:19:28;15.45;;;5.78;;
43457;SDS011;29046;54.184;18.680;2023-09-08T07:21:56;18.60;;;5.90;;
43457;SDS011;29046;54.184;18.680;2023-09-08T07:24:24;11.35;;;5.60;;
43457;SDS011;29046;54.184;18.680;2023-09-08T07:26:51;14.23;;;6.45;;
43457;SDS011;29046;54.184;18.680;2023-09-08T07:29:19;12.13;;;5.50;;
43457;SDS011;29046;54.184;18.680;2023-09-08T07:31:47;15.65;;;5.68;;
43457;SDS011;29046;54.184;18.680;2023-09-08T07:34:14;8.15;;;4.93;;
43457;SDS011;29046;54.184;18.680;2023-09-08T07:36:42;12.07;;;5.97;;
43457;SDS011;29046;54.184;18.680;2023-09-08T07:39:09;16.63;;;5.60;;
43457;SDS011;29046;54.184;18.680;2023-09-08T07:41:37;16.92;;;4.90;;
43457;SDS011;29046;54.184;18.680;2023-09-08T07:44:06;14.05;;;5.60;;
43457;SDS011;29046;54.184;18.680;2023-09-08T07:46:34;14.18;;;4.78;;
43457;SDS011;29046;54.184;18.680;2023-09-08T07:49:02;12.50;;;4.93;;
43457;SDS011;29046;54.184;18.680;2023-09-08T07:51:30;14.52;;;5.40;;
43457;SDS011;29046;54.184;18.680;2023-09-08T07:53:57;12.38;;;5.13;;
43457;SDS011;29046;54.184;18.680;2023-09-08T07:56:25;16.88;;;5.32;;
43457;SDS011;29046;54.184;18.680;2023-09-08T07:58:53;16.67;;;5.00;;
43457;SDS011;29046;54.184;18.680;2023-09-08T08:01:21;11.50;;;5.53;;
43457;SDS011;29046;54.184;18.680;2023-09-08T08:03:48;8.38;;;5.03;;
43457;SDS011;29046;54.184;18.680;2023-09-08T08:06:16;10.23;;;5.00;;
43457;SDS011;29046;54.184;18.680;2023-09-08T08:08:44;10.50;;;5.25;;
43457;SDS011;29046;54.184;18.680;2023-09-08T08:11:12;10.27;;;4.75;;
43457;SDS011;29046;54.184;18.680;2023-09-08T08:13:40;6.40;;;4.47;;
43457;SDS011;29046;54.184;18.680;2023-09-08T08:16:08;13.85;;;5.20;;
43457;SDS011;29046;54.184;18.680;2023-09-08T08:18:36;8.48;;;4.43;;
43457;SDS011;29046;54.184;18.680;2023-09-08T08:21:04;10.70;;;5.03;;
43457;SDS011;29046;54.184;18.680;2023-09-08T08:23:32;11.98;;;4.60;;
43457;SDS011;29046;54.184;18.680;2023-09-08T08:26:01;13.65;;;5.13;;
43457;SDS011;29046;54.184;18.680;2023-09-08T08:28:29;11.23;;;4.70;;
43457;SDS011;29046;54.184;18.680;2023-09-08T08:30:57;9.10;;;4.68;;
43457;SDS011;29046;54.184;18.680;2023-09-08T08:33:25;6.13;;;4.47;;
43457;SDS011;29046;54.184;18.680;2023-09-08T08:35:53;7.05;;;4.97;;
43457;SDS011;29046;54.184;18.680;2023-09-08T08:38:20;7.10;;;4.60;;
43457;SDS011;29046;54.184;18.680;2023-09-08T08:40:48;9.85;;;4.55;;
43457;SDS011;29046;54.184;18.680;2023-09-08T08:43:16;7.95;;;4.97;;
43457;SDS011;29046;54.184;18.680;2023-09-08T08:45:44;7.63;;;4.97;;
43457;SDS011;29046;54.184;18.680;2023-09-08T08:48:11;8.15;;;4.93;;
43457;SDS011;29046;54.184;18.680;2023-09-08T08:50:41;14.82;;;4.60;;
43457;SDS011;29046;54.184;18.680;2023-09-08T08:53:09;9.50;;;4.72;;
43457;SDS011;29046;54.184;18.680;2023-09-08T08:55:38;7.78;;;4.60;;
43457;SDS011;29046;54.184;18.680;2023-09-08T08:58:05;9.25;;;4.43;;
43457;SDS011;29046;54.184;18.680;2023-09-08T09:00:34;7.85;;;4.55;;
43457;SDS011;29046;54.184;18.680;2023-09-08T09:03:04;9.02;;;3.75;;
43457;SDS011;29046;54.184;18.680;2023-09-08T09:05:41;6.03;;;3.88;;
43457;SDS011;29046;54.184;18.680;2023-09-08T09:08:14;9.73;;;4.40;;
43457;SDS011;29046;54.184;18.680;2023-09-08T09:10:43;8.13;;;4.28;;
43457;SDS011;29046;54.184;18.680;2023-09-08T09:13:11;4.32;;;3.80;;
43457;SDS011;29046;54.184;18.680;2023-09-08T09:15:39;7.88;;;3.70;;
43457;SDS011;29046;54.184;18.680;2023-09-08T09:18:07;9.15;;;4.25;;
43457;SDS011;29046;54.184;18.680;2023-09-08T09:20:36;9.00;;;4.00;;
43457;SDS011;29046;54.184;18.680;2023-09-08T09:23:03;4.40;;;4.00;;
43457;SDS011;29046;54.184;18.680;2023-09-08T09:25:31;7.82;;;4.10;;
43457;SDS011;29046;54.184;18.680;2023-09-08T09:28:00;5.45;;;3.90;;
43457;SDS011;29046;54.184;18.680;2023-09-08T09:30:47;5.70;;;3.90;;
43457;SDS011;29046;54.184;18.680;2023-09-08T09:33:15;7.18;;;4.13;;
43457;SDS011;29046;54.184;18.680;2023-09-08T09:35:44;6.10;;;3.90;;
43457;SDS011;29046;54.184;18.680;2023-09-08T09:38:12;6.03;;;4.00;;
43457;SDS011;29046;54.184;18.680;2023-09-08T09:40:40;8.85;;;3.83;;
43457;SDS011;29046;54.184;18.680;2023-09-08T09:43:08;3.75;;;3.35;;
43457;SDS011;29046;54.184;18.680;2023-09-08T09:45:39;5.43;;;3.92;;
43457;SDS011;29046;54.184;18.680;2023-09-08T09:48:07;7.00;;;3.83;;
43457;SDS011;29046;54.184;18.680;2023-09-08T09:50:36;4.50;;;4.00;;
43457;SDS011;29046;54.184;18.680;2023-09-08T09:53:10;5.03;;;3.88;;
43457;SDS011;29046;54.184;18.680;2023-09-08T09:55:43;8.68;;;3.97;;
43457;SDS011;29046;54.184;18.680;2023-09-08T09:58:11;3.72;;;3.38;;
43457;SDS011;29046;54.184;18.680;2023-09-08T10:00:39;9.88;;;3.65;;
43457;SDS011;29046;54.184;18.680;2023-09-08T10:03:08;5.10;;;4.10;;
43457;SDS011;29046;54.184;18.680;2023-09-08T10:05:36;11.15;;;3.78;;
43457;SDS011;29046;54.184;18.680;2023-09-08T10:08:04;4.28;;;3.88;;
43457;SDS011;29046;54.184;18.680;2023-09-08T10:10:32;4.10;;;3.70;;
43457;SDS011;29046;54.184;18.680;2023-09-08T10:13:04;5.80;;;3.80;;
43457;SDS011;29046;54.184;18.680;2023-09-08T10:15:33;7.55;;;4.10;;
43457;SDS011;29046;54.184;18.680;2023-09-08T10:18:03;8.05;;;4.15;;
43457;SDS011;29046;54.184;18.680;2023-09-08T10:20:33;4.85;;;3.88;;
43457;SDS011;29046;54.184;18.680;2023-09-08T10:25:29;4.53;;;3.63;;
43457;SDS011;29046;54.184;18.680;2023-09-08T10:27:58;6.38;;;4.35;;
43457;SDS011;29046;54.184;18.680;2023-09-08T10:30:26;4.63;;;4.07;;
43457;SDS011;29046;54.184;18.680;2023-09-08T10:32:54;7.38;;;4.32;;
43457;SDS011;29046;54.184;18.680;2023-09-08T10:35:22;4.47;;;4.07;;
43457;SDS011;29046;54.184;18.680;2023-09-08T10:37:51;10.45;;;4.07;;
43457;SDS011;29046;54.184;18.680;2023-09-08T10:40:23;4.97;;;4.47;;
43457;SDS011;29046;54.184;18.680;2023-09-08T10:43:07;4.90;;;3.72;;
43457;SDS011;29046;54.184;18.680;2023-09-08T10:45:35;4.43;;;3.53;;
43457;SDS011;29046;54.184;18.680;2023-09-08T10:48:03;6.32;;;4.18;;
43457;SDS011;29046;54.184;18.680;2023-09-08T10:50:32;7.40;;;4.20;;
43457;SDS011;29046;54.184;18.680;2023-09-08T10:55:37;4.80;;;4.00;;
43457;SDS011;29046;54.184;18.680;2023-09-08T10:58:08;8.23;;;3.95;;
43457;SDS011;29046;54.184;18.680;2023-09-08T11:00:44;6.53;;;4.00;;
43457;SDS011;29046;54.184;18.680;2023-09-08T11:03:12;6.05;;;4.60;;
43457;SDS011;29046;54.184;18.680;2023-09-08T11:05:43;7.90;;;3.92;;
43457;SDS011;29046;54.184;18.680;2023-09-08T11:08:11;10.35;;;4.57;;
43457;SDS011;29046;54.184;18.680;2023-09-08T11:10:40;4.97;;;4.13;;
43457;SDS011;29046;54.184;18.680;2023-09-08T11:13:08;6.60;;;4.10;;
43457;SDS011;29046;54.184;18.680;2023-09-08T11:15:37;7.70;;;4.32;;
43457;SDS011;29046;54.184;18.680;2023-09-08T11:18:05;6.07;;;4.10;;
43457;SDS011;29046;54.184;18.680;2023-09-08T11:20:34;5.60;;;4.57;;
43457;SDS011;29046;54.184;18.680;2023-09-08T11:23:02;4.85;;;4.20;;
43457;SDS011;29046;54.184;18.680;2023-09-08T11:25:32;6.05;;;4.18;;
43457;SDS011;29046;54.184;18.680;2023-09-08T11:28:00;4.65;;;3.83;;
43457;SDS011;29046;54.184;18.680;2023-09-08T11:30:28;8.25;;;4.32;;
43457;SDS011;29046;54.184;18.680;2023-09-08T11:32:55;5.38;;;4.75;;
43457;SDS011;29046;54.184;18.680;2023-09-08T11:35:26;7.00;;;4.28;;
43457;SDS011;29046;54.184;18.680;2023-09-08T11:37:58;5.82;;;4.07;;
43457;SDS011;29046;54.184;18.680;2023-09-08T11:40:26;5.13;;;4.25;;
43457;SDS011;29046;54.184;18.680;2023-09-08T11:42:54;12.07;;;4.15;;
43457;SDS011;29046;54.184;18.680;2023-09-08T11:45:22;7.30;;;4.47;;
43457;SDS011;29046;54.184;18.680;2023-09-08T11:47:52;5.95;;;4.38;;
43457;SDS011;29046;54.184;18.680;2023-09-08T11:50:20;7.75;;;4.82;;
43457;SDS011;29046;54.184;18.680;2023-09-08T11:52:50;5.13;;;4.00;;
43457;SDS011;29046;54.184;18.680;2023-09-08T11:55:19;8.48;;;4.20;;
43457;SDS011;29046;54.184;18.680;2023-09-08T11:57:52;6.88;;;4.05;;
43457;SDS011;29046;54.184;18.680;2023-09-08T12:00:27;7.10;;;4.00;;
43457;SDS011;29046;54.184;18.680;2023-09-08T12:03:08;5.20;;;3.92;;
43457;SDS011;29046;54.184;18.680;2023-09-08T12:05:36;12.35;;;4.57;;
43457;SDS011;29046;54.184;18.680;2023-09-08T12:08:04;6.97;;;4.45;;
43457;SDS011;29046;54.184;18.680;2023-09-08T12:10:39;5.93;;;4.18;;
43457;SDS011;29046;54.184;18.680;2023-09-08T12:13:07;9.02;;;5.03;;
43457;SDS011;29046;54.184;18.680;2023-09-08T12:15:39;10.48;;;4.95;;
43457;SDS011;29046;54.184;18.680;2023-09-08T12:18:08;8.32;;;4.00;;
43457;SDS011;29046;54.184;18.680;2023-09-08T12:20:36;9.23;;;5.00;;
43457;SDS011;29046;54.184;18.680;2023-09-08T12:23:05;7.20;;;3.85;;
43457;SDS011;29046;54.184;18.680;2023-09-08T12:25:43;5.90;;;4.60;;
43457;SDS011;29046;54.184;18.680;2023-09-08T12:28:11;7.00;;;4.25;;
43457;SDS011;29046;54.184;18.680;2023-09-08T12:30:39;8.75;;;4.28;;
43457;SDS011;29046;54.184;18.680;2023-09-08T12:33:06;6.75;;;4.25;;
43457;SDS011;29046;54.184;18.680;2023-09-08T12:35:35;6.78;;;4.47;;
43457;SDS011;29046;54.184;18.680;2023-09-08T12:38:03;5.03;;;3.88;;
43457;SDS011;29046;54.184;18.680;2023-09-08T12:40:35;5.15;;;4.10;;
43457;SDS011;29046;54.184;18.680;2023-09-08T12:43:03;8.23;;;3.97;;
43457;SDS011;29046;54.184;18.680;2023-09-08T12:45:51;7.32;;;4.32;;
43457;SDS011;29046;54.184;18.680;2023-09-08T12:48:19;7.30;;;4.30;;
43457;SDS011;29046;54.184;18.680;2023-09-08T12:50:46;9.75;;;4.47;;
43457;SDS011;29046;54.184;18.680;2023-09-08T12:53:17;11.10;;;6.90;;
43457;SDS011;29046;54.184;18.680;2023-09-08T12:55:46;8.02;;;4.70;;
43457;SDS011;29046;54.184;18.680;2023-09-08T12:58:14;14.57;;;5.97;;
43457;SDS011;29046;54.184;18.680;2023-09-08T13:00:44;9.68;;;4.93;;
43457;SDS011;29046;54.184;18.680;2023-09-08T13:03:12;7.80;;;4.13;;
43457;SDS011;29046;54.184;18.680;2023-09-08T13:05:40;4.53;;;3.92;;
43457;SDS011;29046;54.184;18.680;2023-09-08T13:08:07;8.63;;;4.20;;
43457;SDS011;29046;54.184;18.680;2023-09-08T13:10:35;5.88;;;4.22;;
43457;SDS011;29046;54.184;18.680;2023-09-08T13:13:03;4.70;;;3.95;;
43457;SDS011;29046;54.184;18.680;2023-09-08T13:15:31;6.53;;;4.25;;
43457;SDS011;29046;54.184;18.680;2023-09-08T13:17:58;6.40;;;4.45;;
43457;SDS011;29046;54.184;18.680;2023-09-08T13:20:26;7.18;;;4.45;;
43457;SDS011;29046;54.184;18.680;2023-09-08T13:22:54;5.13;;;4.20;;
43457;SDS011;29046;54.184;18.680;2023-09-08T13:25:21;10.35;;;4.43;;
43457;SDS011;29046;54.184;18.680;2023-09-08T13:27:49;5.30;;;4.50;;
43457;SDS011;29046;54.184;18.680;2023-09-08T13:30:17;9.30;;;4.10;;
43457;SDS011;29046;54.184;18.680;2023-09-08T13:32:45;10.25;;;4.40;;
43457;SDS011;29046;54.184;18.680;2023-09-08T13:35:13;5.25;;;4.22;;
43457;SDS011;29046;54.184;18.680;2023-09-08T13:37:40;7.50;;;3.95;;
43457;SDS011;29046;54.184;18.680;2023-09-08T13:40:09;7.03;;;4.05;;
43457;SDS011;29046;54.184;18.680;2023-09-08T13:42:37;5.38;;;4.55;;
43457;SDS011;29046;54.184;18.680;2023-09-08T13:45:05;5.00;;;4.10;;
43457;SDS011;29046;54.184;18.680;2023-09-08T13:47:32;9.55;;;4.30;;
43457;SDS011;29046;54.184;18.680;2023-09-08T13:50:04;7.57;;;4.63;;
43457;SDS011;29046;54.184;18.680;2023-09-08T13:52:32;8.40;;;4.80;;
43457;SDS011;29046;54.184;18.680;2023-09-08T13:55:05;10.85;;;5.13;;
43457;SDS011;29046;54.184;18.680;2023-09-08T13:57:36;6.13;;;4.47;;
43457;SDS011;29046;54.184;18.680;2023-09-08T14:00:07;5.70;;;4.40;;
43457;SDS011;29046;54.184;18.680;2023-09-08T14:02:42;6.60;;;4.05;;
43457;SDS011;29046;54.184;18.680;2023-09-08T14:05:16;5.32;;;4.80;;
43457;SDS011;29046;54.184;18.680;2023-09-08T14:07:52;6.47;;;4.30;;
43457;SDS011;29046;54.184;18.680;2023-09-08T14:10:32;10.98;;;5.47;;
43457;SDS011;29046;54.184;18.680;2023-09-08T14:13:03;8.38;;;4.78;;
43457;SDS011;29046;54.184;18.680;2023-09-08T14:15:31;10.15;;;5.18;;
43457;SDS011;29046;54.184;18.680;2023-09-08T14:17:58;7.82;;;4.68;;
43457;SDS011;29046;54.184;18.680;2023-09-08T14:20:26;7.55;;;4.53;;
43457;SDS011;29046;54.184;18.680;2023-09-08T14:22:54;7.07;;;4.30;;
43457;SDS011;29046;54.184;18.680;2023-09-08T14:25:22;5.57;;;4.57;;
43457;SDS011;29046;54.184;18.680;2023-09-08T14:27:49;5.63;;;4.15;;
43457;SDS011;29046;54.184;18.680;2023-09-08T14:30:17;6.35;;;4.68;;
43457;SDS011;29046;54.184;18.680;2023-09-08T14:32:44;7.20;;;4.80;;
43457;SDS011;29046;54.184;18.680;2023-09-08T14:35:13;9.95;;;4.85;;
43457;SDS011;29046;54.184;18.680;2023-09-08T14:37:41;7.95;;;5.07;;
43457;SDS011;29046;54.184;18.680;2023-09-08T14:40:09;4.50;;;4.07;;
43457;SDS011;29046;54.184;18.680;2023-09-08T14:42:36;7.50;;;4.15;;